LGKN weather

Marathon Kotroni Air Base
Marathon, Attica, Greece

Public forecast

Using degrees Celsius for public forecast. Weather courtesy of forecast.io.

METAR (pilot weather report)

Closest report is Eleftherios Venizelos International Airport, 12.1 nm (22.4 km) S. Retrieved 2018/09/23 11:50 UTC (29 minutes ago):

LGAV 231150Z 06015KT CAVOK 30/10 Q1018 NOSIG

TAF (pilot weather forecast)

Closest forecast is Eleftherios Venizelos International Airport, 12.1 nm (22.4 km) S. Retrieved 2018/09/23 12:12 UTC (7 minutes ago):

TAF TAF LGAV 231100Z 2312/2412 02016KT 9999 FEW025 BECMG 2318/2320 VRB05KT